Latest Coastal Weather Observations for Cape Naturaliste

IDW60701

Issued at 12:55 am WST Saturday 29 November 2014 (issued every 10 minutes, with the page automatically refreshed every 10 minutes)

About coastal observations | Map of coastal stations | Coastal observations for WA | Marine services | Other Formats
Station Details ID: 009519 Name: CAPE NATURALISTE Lat: -33.54 Lon: 115.02 Height: 109.0 m
Data from the previous 72 hours. | See also: Recent months at Cape Naturaliste
Date/Time
WST
Temp

°C
Wind Pressure Rain
since 9am
mm
Weather Cloud Vis
km
Sea
Height
m
Swell
Dir
 
Speed
knots
Gust
knots
hPa Trend Height
m
Period
s
Dir
29/12:30am 14.8 S 10 14 1014.1 - 0.0 - - - - - - -
29/12:00am 15.0 S 10 14 1014.2 - 0.0 - - - - - - -
 
Date/Time
WST
Temp

°C
Wind Pressure Rain
since 9am
mm
Weather Cloud Vis
km
Sea
Height
m
Swell
Dir
 
Speed
knots
Gust
knots
hPa Trend Height
m
Period
s
Dir
28/11:30pm 15.3 S 11 16 1014.2 - 0.0 - - - - - - -
28/11:00pm 15.2 S 13 19 1014.3 - 0.0 - - - - - - -
28/10:30pm 15.2 S 12 19 1014.5 - 0.0 - - - - - - -
28/10:00pm 15.2 S 13 18 1014.6 - 0.0 - - - - - - -
28/09:30pm 15.3 S 13 19 1014.5 - 0.0 - - - - - - -
28/09:00pm 15.4 S 14 19 1014.2 - 0.0 - - - - - - -
28/08:30pm 15.4 S 17 23 1013.8 - 0.0 - - - - - - -
28/08:00pm 15.6 S 16 22 1013.7 - 0.0 - - - - - - -
28/07:30pm 15.8 S 17 23 1013.4 - 0.0 - - - - - - -
28/07:00pm 16.2 SSW 21 27 1013.1 - 0.0 - - - - - - -
28/06:30pm 16.5 SSW 19 26 1012.8 - 0.0 - - - - - - -
28/06:15pm 16.6 SSW 19 29 1012.6 - 0.0 - - - - - - -
28/06:00pm 16.7 SSW 21 28 1012.4 - 0.0 - - - - - - -
28/05:30pm 17.0 SSW 20 28 1012.2 - 0.0 - - - - - - -
28/05:00pm 17.8 SSW 20 26 1012.0 - 0.0 - - - - - - -
28/04:30pm 18.2 SSW 19 26 1011.8 - 0.0 - - - - - - -
28/04:00pm 17.9 SSW 19 25 1011.6 - 0.0 - - - - - - -
28/03:30pm 19.2 SSW 18 24 1011.3 - 0.0 - - - - - - -
28/03:00pm 19.1 SSW 19 25 1011.2 - 0.0 - - - - - - -
28/02:30pm 19.5 SSW 19 28 1011.1 - 0.0 - - - - - - -
28/02:00pm 20.1 SSW 19 28 1011.2 - 0.0 - - - - - - -
28/01:30pm 19.7 SSW 22 29 1011.0 - 0.0 - - - - - - -
28/01:00pm 19.9 SSW 20 27 1010.9 - 0.0 - - - - - - -
28/12:30pm 20.6 SSW 20 26 1010.6 - 0.0 - - - - - - -
28/12:00pm 21.1 SSW 18 23 1010.4 - 0.0 - - - - - - -
28/11:39am 20.8 SSW 20 30 1010.6 - 0.0 - - - - - - -
28/11:30am 20.5 SSW 21 26 1010.7 - 0.0 - - - - - - -
28/11:00am 21.2 SSW 20 28 1010.4 - 0.0 - - - - - - -
28/10:30am 21.0 SSW 19 25 1010.2 - 0.0 - - - - - - -
28/10:00am 20.7 SSW 19 25 1010.1 - 0.0 - - - - - - -
28/09:30am 20.6 SSW 17 22 1010.0 - 0.0 - - - - - - -
28/09:00am 20.2 SSW 16 21 1009.9 - 9.8 - - - - - - -
28/08:30am 20.0 SSW 17 22 1010.0 - 9.8 - - - - - - -
28/08:00am 19.2 SSW 17 22 1010.2 - 9.8 - - - - - - -
28/07:30am 18.9 SSW 17 22 1010.2 - 9.8 - - - - - - -
28/07:00am 18.5 SSW 18 23 1010.2 - 9.8 - - - - - - -
28/06:30am 18.4 SSW 15 20 1010.0 - 9.8 - - - - - - -
28/06:00am 17.8 SSW 14 19 1010.0 - 9.8 - - - - - - -
28/05:30am 17.1 SSW 15 19 1009.9 - 9.8 - - - - - - -
28/05:00am 17.1 SSW 16 20 1009.8 - 9.8 - - - - - - -
28/04:30am 17.4 SSW 14 19 1009.6 - 9.8 - - - - - - -
28/04:00am 17.2 SSW 9 12 1009.5 - 9.8 - - - - - - -
28/03:30am 17.4 SSW 9 11 1009.5 - 9.8 - - - - - - -
28/03:00am 17.5 SSW 10 12 1009.5 - 9.8 - - - - - - -
28/02:30am 17.6 S 9 13 1009.6 - 9.8 - - - - - - -
28/02:00am 17.5 SSW 8 13 1009.6 - 9.8 - - - - - - -
28/01:30am 17.3 SSW 9 14 1009.4 - 9.8 - - - - - - -
28/01:00am 17.3 SSW 8 11 1009.6 - 9.8 - - - - - - -
28/12:30am 17.1 SSW 12 15 1009.3 - 9.8 - - - - - - -
28/12:00am 17.1 SSW 12 15 1009.5 - 9.6 - - - - - - -
 
Date/Time
WST
Temp

°C
Wind Pressure Rain
since 9am
mm
Weather Cloud Vis
km
Sea
Height
m
Swell
Dir
 
Speed
knots
Gust
knots
hPa Trend Height
m
Period
s
Dir
27/11:30pm 17.0 SSW 12 16 1009.5 - 9.6 - - - - - - -
27/11:00pm 17.0 S 9 12 1009.8 - 9.6 - - - - - - -
27/10:30pm 17.0 SSW 9 13 1010.0 - 9.6 - - - - - - -
27/10:00pm 17.4 SSW 10 13 1010.1 - 9.6 - - - - - - -
27/09:30pm 17.9 SSW 11 13 1010.1 - 9.6 - - - - - - -
27/09:00pm 18.2 SSW 12 16 1010.4 - 9.6 - - - - - - -
27/08:30pm 18.3 SSW 14 19 1010.0 - 9.6 - - - - - - -
27/08:00pm 18.4 SSW 12 14 1009.8 - 9.6 - - - - - - -
27/07:30pm 18.4 SSW 7 11 1009.7 - 9.6 - - - - - - -
27/07:00pm 19.4 WSW 5 6 1009.8 - 9.6 - - - - - - -
27/06:30pm 20.5 E 2 3 1009.9 - 9.6 - - - - - - -
27/06:00pm 21.0 E 4 6 1009.9 - 9.6 - - - - - - -
27/05:30pm 21.1 E 7 9 1010.0 - 9.6 - - - - - - -
27/05:00pm 21.2 ENE 8 11 1010.0 - 9.6 - - - - - - -
27/04:30pm 22.6 E 7 9 1009.7 - 9.6 - - - - - - -
27/04:00pm 23.1 E 3 5 1010.0 - 9.6 - - - - - - -
27/03:30pm 22.6 ESE 7 8 1010.2 - 9.6 - - - - - - -
27/03:00pm 21.9 E 8 11 1010.7 - 9.6 - - - - - - -
27/02:30pm 21.7 E 10 12 1011.0 - 9.6 - - - - - - -
27/02:00pm 20.7 ENE 12 14 1011.3 - 9.6 - - - - - - -
27/01:30pm 20.9 E 9 12 1011.2 - 9.6 - - - - - - -
27/01:00pm 19.1 E 8 10 1010.9 - 9.6 - - - - - - -
27/12:30pm 18.8 E 4 6 1011.5 - 8.0 - - - - - - -
27/12:00pm 18.4 NE 8 11 1011.8 - 6.6 - - - - - - -
27/11:30am 19.2 E 11 13 1012.3 - 6.6 - - - - - - -
27/11:00am 20.4 E 11 15 1012.2 - 6.6 - - - - - - -
27/10:30am 19.4 ESE 11 14 1012.2 - 6.4 - - - - - - -
27/10:00am 18.3 ESE 10 13 1012.2 - 6.0 - - - - - - -
27/09:30am 18.2 ESE 11 15 1012.4 - 3.6 - - - - - - -
27/09:00am 20.6 E 10 14 1012.0 - 2.6 - - - - - - -
27/08:30am 21.6 ESE 8 11 1011.6 - 2.6 - - - - - - -
27/08:00am 20.5 ESE 14 19 1011.2 - 2.6 - - - - - - -
27/07:30am 20.3 ESE 12 16 1011.3 - 2.6 - - - - - - -
27/07:00am 19.1 ESE 13 16 1011.4 - 2.6 - - - - - - -
27/06:30am 18.8 ESE 14 19 1011.3 - 2.6 - - - - - - -
27/06:00am 18.5 ESE 13 16 1011.1 - 2.6 - - - - - - -
27/05:30am 17.9 ESE 13 17 1010.8 - 2.6 - - - - - - -
27/05:00am 18.0 ESE 14 17 1010.8 - 2.6 - - - - - - -
27/04:30am 18.2 ESE 14 17 1010.6 - 2.6 - - - - - - -
27/04:00am 18.4 ESE 14 18 1010.4 - 2.6 - - - - - - -
27/03:30am 18.5 ESE 14 19 1010.4 - 2.6 - - - - - - -
27/03:00am 18.6 ESE 15 19 1010.2 - 2.6 - - - - - - -
27/02:30am 18.6 ESE 16 21 1010.0 - 2.6 - - - - - - -
27/02:00am 18.5 ESE 18 24 1009.8 - 2.6 - - - - - - -
27/01:30am 18.7 ESE 18 23 1009.7 - 2.6 - - - - - - -
27/01:00am 19.1 ESE 16 22 1009.7 - 2.6 - - - - - - -
27/12:30am 19.2 ESE 15 20 1009.7 - 2.6 - - - - - - -
27/12:00am 19.0 ESE 16 21 1009.8 - 2.6 - - - - - - -
 
Date/Time
WST
Temp

°C
Wind Pressure Rain
since 9am
mm
Weather Cloud Vis
km
Sea
Height
m
Swell
Dir
 
Speed
knots
Gust
knots
hPa Trend Height
m
Period
s
Dir
26/11:30pm 19.0 ESE 18 29 1009.5 - 2.6 - - - - - - -
26/11:27pm 18.9 ESE 18 29 1009.4 - 2.6 - - - - - - -
26/11:00pm 19.2 ESE 22 30 1009.1 - 2.6 - - - - - - -
26/10:30pm 19.1 ESE 23 32 1009.1 - 2.6 - - - - - - -
26/10:00pm 18.9 ESE 22 32 1010.0 - 2.6 - - - - - - -
26/09:56pm 18.9 ESE 22 32 1010.1 - 2.6 - - - - - - -
26/09:30pm 17.9 SE 17 24 1011.4 - 2.6 - - - - - - -
26/09:00pm 17.6 SE 15 22 1012.3 - 2.6 Recent precip. - - - - - -
26/08:30pm 18.0 SSE 14 22 1012.1 - 2.6 - - - - - - -
26/08:19pm 17.7 S 17 24 1011.8 - 2.6 - - - - - - -
26/08:00pm 17.4 SSW 20 26 1012.6 - 2.4 - - - - - - -
26/07:30pm 17.6 SSW 15 19 1013.7 - 2.4 - - - - - - -
26/07:00pm 18.0 SSW 19 26 1012.8 - 2.2 - - - - - - -
26/06:30pm 18.8 SW 19 25 1013.0 - 2.2 - - - - - - -
26/06:00pm 18.7 SSW 18 23 1011.9 - 2.2 Recent precip. - - - - - -
26/05:30pm 18.8 SSW 11 17 1011.2 - 2.0 - - - - - - -
26/05:00pm 19.5 SW 9 13 1011.0 - 1.6 - - - - - - -
26/04:30pm 20.0 S 9 11 1009.9 - 1.6 - - - - - - -
26/04:00pm 18.7 SE 14 21 1008.9 - 1.6 - - - - - - -
26/03:30pm 19.0 ESE 15 21 1010.1 - 1.0 - - - - - - -
26/03:00pm 18.9 ESE 13 16 1010.9 - 0.8 Rain - - - - - -
26/02:30pm 19.4 S 11 14 1011.1 - 0.6 - - - - - - -
26/02:00pm 19.4 SSE 6 9 1012.6 - 0.2 - - - - - - -
26/01:30pm 20.9 S 6 10 1012.7 - 0.0 - - - - - - -
26/01:00pm 22.5 E 12 15 1012.2 - 0.0 - - - - - - -
26/12:30pm 23.8 E 14 17 1012.3 - 0.0 - - - - - - -
26/12:00pm 24.1 ESE 16 21 1012.1 - 0.0 - - - - - - -
26/11:30am 22.1 E 17 21 1012.5 - 0.0 - - - - - - -
26/11:00am 21.0 E 18 23 1012.5 - 0.0 - - - - - - -
26/10:30am 20.3 ESE 19 24 1012.6 - 0.0 - - - - - - -
26/10:00am 20.8 E 18 22 1013.2 - 0.0 - - - - - - -
26/09:30am 20.4 E 19 23 1013.2 - 0.0 - - - - - - -
26/09:00am 19.1 E 20 24 1013.2 - 0.0 - - - - - - -
26/08:30am 18.3 ESE 21 27 1013.4 - 0.0 - - - - - - -
26/08:00am 18.1 E 22 26 1013.6 - 0.0 - - - - - - -
26/07:30am 17.9 E 22 27 1013.7 - 0.0 - - - - - - -
26/07:00am 17.0 ESE 22 29 1013.8 - 0.0 - - - - - - -
26/06:30am 17.0 ESE 23 27 1013.9 - 0.0 - - - - - - -
26/06:00am 16.6 ESE 23 28 1014.1 - 0.0 - - - - - - -
26/05:30am 16.3 ESE 23 30 1013.9 - 0.0 - - - - - - -
26/05:00am 16.4 E 24 31 1013.9 - 0.0 - - - - - - -
26/04:30am 16.4 E 22 28 1013.7 - 0.0 - - - - - - -
26/04:00am 16.4 E 21 26 1013.7 - 0.0 - - - - - - -
26/03:30am 16.5 ESE 20 25 1013.6 - 0.0 - - - - - - -
26/03:00am 16.5 ESE 20 25 1013.8 - 0.0 - - - - - - -
26/02:30am 17.0 E 21 27 1013.9 - 0.0 - - - - - - -
26/02:00am 17.2 ESE 20 25 1013.9 - 0.0 - - - - - - -
26/01:30am 17.7 ESE 21 26 1014.1 - 0.0 - - - - - - -
26/01:00am 18.0 ESE 19 27 1014.4 - 0.0 - - - - - - -

Other Formats:

Comma delimited format used in spreadsheet applications
http://www.bom.gov.au/fwo/IDW60701/IDW60701.94600.axf

JavaScript Object Notation format (JSON) in row-major order
http://www.bom.gov.au/fwo/IDW60701/IDW60701.94600.json